createdAt,value
2022-09-28T00:01:13.753Z,81.69
2022-09-28T00:03:40.379Z,81.51
2022-09-28T00:06:10.081Z,81.49
2022-09-28T00:08:37.373Z,81.37
2022-09-28T00:11:06.507Z,81.41
2022-09-28T00:13:34.105Z,81.55
2022-09-28T00:16:10.617Z,81.30
2022-09-28T00:18:37.531Z,81.34
2022-09-28T00:21:12.285Z,80.97
2022-09-28T00:23:59.996Z,80.83
2022-09-28T00:26:28.083Z,80.72
2022-09-28T00:28:56.879Z,80.45
2022-09-28T00:31:25.065Z,80.60
2022-09-28T00:33:53.295Z,80.75
2022-09-28T00:36:19.892Z,80.87
2022-09-28T00:38:46.549Z,80.53
2022-09-28T00:41:14.123Z,80.77
2022-09-28T00:43:41.373Z,80.60
2022-09-28T00:46:15.316Z,81.17
2022-09-28T00:48:54.813Z,80.85
2022-09-28T00:51:22.715Z,81.01
2022-09-28T00:53:51.213Z,81.28
2022-09-28T00:56:21.684Z,81.38
2022-09-28T00:58:52.973Z,81.25
2022-09-28T01:01:19.521Z,81.10
2022-09-28T01:03:48.800Z,80.97
2022-09-28T01:06:20.586Z,80.75
2022-09-28T01:08:50.826Z,80.61
2022-09-28T01:11:19.613Z,80.62
2022-09-28T01:13:50.053Z,80.76
2022-09-28T01:16:33.818Z,80.91
2022-09-28T01:19:34.474Z,80.53
2022-09-28T01:22:26.395Z,80.41
2022-09-28T01:25:20.969Z,80.60
2022-09-28T01:27:54.881Z,80.61
2022-09-28T01:30:22.245Z,80.60
2022-09-28T01:32:56.000Z,80.63
2022-09-28T01:35:44.388Z,81.16
2022-09-28T01:38:26.778Z,81.21
2022-09-28T01:40:55.731Z,81.31
2022-09-28T01:43:30.368Z,81.23
2022-09-28T01:46:05.048Z,81.29
2022-09-28T01:48:51.441Z,81.23
2022-09-28T01:51:42.438Z,81.16
2022-09-28T01:54:28.222Z,81.66
2022-09-28T01:57:00.591Z,81.53
2022-09-28T01:59:30.827Z,81.42
2022-09-28T02:02:18.768Z,81.05
2022-09-28T02:04:55.702Z,81.28
2022-09-28T02:07:42.459Z,81.32
2022-09-28T02:10:22.094Z,81.41
2022-09-28T02:12:59.513Z,81.75
2022-09-28T02:16:01.401Z,81.88
2022-09-28T02:18:29.471Z,81.98
2022-09-28T02:21:07.050Z,81.61
2022-09-28T02:23:37.362Z,81.64
2022-09-28T02:26:10.313Z,81.51
2022-09-28T02:28:37.284Z,81.50
2022-09-28T02:31:07.320Z,81.49
2022-09-28T02:33:41.286Z,81.18
2022-09-28T02:36:08.547Z,81.52
2022-09-28T02:38:38.195Z,81.40
2022-09-28T02:41:31.722Z,81.29
2022-09-28T02:44:26.567Z,81.27
2022-09-28T02:47:08.716Z,81.58
2022-09-28T02:49:49.498Z,81.27
2022-09-28T02:52:31.358Z,81.79
2022-09-28T02:55:07.278Z,82.36
2022-09-28T02:57:45.925Z,82.37
2022-09-28T03:00:20.138Z,82.76
2022-09-28T03:03:22.172Z,83.68
2022-09-28T03:06:03.909Z,83.26
2022-09-28T03:08:54.917Z,82.80
2022-09-28T03:11:37.752Z,82.64
2022-09-28T03:14:05.545Z,82.35
2022-09-28T03:16:46.542Z,83.10
2022-09-28T03:19:14.022Z,83.14
2022-09-28T03:21:41.513Z,82.85
2022-09-28T03:24:11.161Z,82.33
2022-09-28T03:26:41.191Z,82.55
2022-09-28T03:29:08.359Z,82.76
2022-09-28T03:31:37.986Z,82.60
2022-09-28T03:34:04.724Z,82.69
2022-09-28T03:36:32.092Z,82.72
2022-09-28T03:38:59.659Z,82.70
2022-09-28T03:41:30.141Z,82.61
2022-09-28T03:43:57.036Z,82.00
2022-09-28T03:46:26.592Z,81.69
2022-09-28T03:48:58.471Z,81.66
2022-09-28T03:51:27.784Z,81.53
2022-09-28T03:53:54.889Z,81.98
2022-09-28T03:56:21.844Z,81.81
2022-09-28T03:58:48.907Z,81.70
2022-09-28T04:01:17.532Z,81.29
2022-09-28T04:03:47.176Z,81.27
2022-09-28T04:06:14.842Z,81.64
2022-09-28T04:08:43.663Z,81.45
2022-09-28T04:11:11.362Z,81.40
2022-09-28T04:13:38.307Z,81.17
2022-09-28T04:16:08.041Z,80.96
2022-09-28T04:18:36.161Z,80.70
2022-09-28T04:21:19.454Z,80.25
2022-09-28T04:23:53.440Z,80.21
2022-09-28T04:26:24.415Z,80.71
2022-09-28T04:29:10.290Z,81.00
2022-09-28T04:31:56.470Z,81.46
2022-09-28T04:34:37.138Z,82.15
2022-09-28T04:37:05.509Z,82.64
2022-09-28T04:39:32.206Z,82.68
2022-09-28T04:42:01.301Z,83.06
2022-09-28T04:44:28.694Z,83.36
2022-09-28T04:47:04.201Z,82.99
2022-09-28T04:49:33.754Z,82.69
2022-09-28T04:52:12.557Z,82.22
2022-09-28T04:54:43.356Z,81.92
2022-09-28T04:57:11.612Z,82.66
2022-09-28T04:59:39.641Z,83.27
2022-09-28T05:02:07.047Z,83.01
2022-09-28T05:05:09.439Z,83.33
2022-09-28T05:07:58.707Z,83.58
2022-09-28T05:10:25.369Z,84.05
2022-09-28T05:12:53.113Z,84.09
2022-09-28T05:15:19.793Z,83.62
2022-09-28T05:17:47.725Z,83.31
2022-09-28T05:20:39.613Z,83.28
2022-09-28T05:23:08.395Z,83.19
2022-09-28T05:25:36.459Z,83.07
2022-09-28T05:28:20.193Z,82.98
2022-09-28T05:31:07.711Z,82.46
2022-09-28T05:33:57.290Z,82.18
2022-09-28T05:36:26.903Z,82.73
2022-09-28T05:38:54.034Z,82.18
2022-09-28T05:41:20.723Z,81.64
2022-09-28T05:43:47.418Z,81.60
2022-09-28T05:46:14.559Z,81.49
2022-09-28T05:48:41.688Z,81.50
2022-09-28T05:51:10.115Z,81.30
2022-09-28T05:53:39.654Z,80.71
2022-09-28T05:56:07.138Z,80.36
2022-09-28T05:58:36.541Z,80.00
2022-09-28T06:01:03.192Z,80.18
2022-09-28T06:03:30.468Z,80.02
2022-09-28T06:05:59.834Z,79.60
2022-09-28T06:08:26.484Z,79.55
2022-09-28T06:11:06.777Z,79.28
2022-09-28T06:13:34.343Z,78.99
2022-09-28T06:16:01.322Z,78.27
2022-09-28T06:18:28.240Z,78.13
2022-09-28T06:21:19.081Z,78.40
2022-09-28T06:23:49.141Z,78.46
2022-09-28T06:26:17.266Z,78.22
2022-09-28T06:28:44.766Z,78.25
2022-09-28T06:31:11.804Z,78.32
2022-09-28T06:33:46.164Z,78.61
2022-09-28T06:36:13.464Z,78.59
2022-09-28T06:38:40.336Z,78.23
2022-09-28T06:41:07.192Z,77.32
2022-09-28T06:43:35.143Z,77.66
2022-09-28T06:46:31.483Z,77.38
2022-09-28T06:49:30.349Z,77.30
2022-09-28T06:52:20.113Z,77.31
2022-09-28T06:55:06.578Z,76.98
2022-09-28T06:57:44.606Z,77.10
2022-09-28T07:00:12.086Z,77.07
2022-09-28T07:02:38.871Z,77.57
2022-09-28T07:05:29.889Z,77.35
2022-09-28T07:08:26.380Z,77.32
2022-09-28T07:11:12.443Z,77.42
2022-09-28T07:13:52.153Z,77.35
2022-09-28T07:16:26.929Z,76.65
2022-09-28T07:18:55.292Z,77.22
2022-09-28T07:21:28.770Z,77.02
2022-09-28T07:23:57.069Z,77.08
2022-09-28T07:26:24.700Z,76.46
2022-09-28T07:29:14.622Z,76.82
2022-09-28T07:32:01.725Z,76.72
2022-09-28T07:35:07.971Z,77.20
2022-09-28T07:37:45.891Z,77.06
2022-09-28T07:40:31.129Z,77.53
2022-09-28T07:43:07.049Z,77.29
2022-09-28T07:45:36.776Z,77.54
2022-09-28T07:48:04.569Z,77.78
2022-09-28T07:50:52.821Z,78.66
2022-09-28T07:53:54.814Z,78.05
2022-09-28T07:56:47.870Z,77.96
2022-09-28T07:59:39.670Z,78.25
2022-09-28T08:02:25.977Z,77.54
2022-09-28T08:04:56.320Z,78.19
2022-09-28T08:07:24.237Z,77.84
2022-09-28T08:09:58.135Z,77.92
2022-09-28T08:12:27.737Z,77.30
2022-09-28T08:15:19.726Z,76.48
2022-09-28T08:17:53.062Z,75.99
2022-09-28T08:20:41.445Z,75.55
2022-09-28T08:23:09.558Z,75.65
2022-09-28T08:25:53.988Z,75.85
2022-09-28T08:28:23.216Z,75.79
2022-09-28T08:30:54.489Z,75.50
2022-09-28T08:33:45.082Z,75.34
2022-09-28T08:36:30.473Z,75.47
2022-09-28T08:39:15.618Z,75.62
2022-09-28T08:42:28.205Z,75.38
2022-09-28T08:45:26.382Z,75.67
2022-09-28T08:48:52.216Z,75.47
2022-09-28T08:52:04.639Z,76.08
2022-09-28T08:54:51.769Z,75.38
2022-09-28T08:57:39.437Z,74.96
2022-09-28T09:00:10.994Z,74.96
2022-09-28T09:02:39.913Z,74.47
2022-09-28T09:05:21.215Z,73.64
2022-09-28T09:08:07.765Z,74.77
2022-09-28T09:10:54.954Z,74.58
2022-09-28T09:14:03.027Z,73.47
2022-09-28T09:16:42.318Z,73.03
2022-09-28T09:19:50.580Z,72.49
2022-09-28T09:22:41.314Z,72.23
2022-09-28T09:25:29.068Z,70.86
2022-09-28T09:28:23.676Z,70.43
2022-09-28T09:30:56.897Z,70.72
2022-09-28T09:33:46.202Z,70.02
2022-09-28T09:37:11.307Z,70.03
2022-09-28T09:40:42.907Z,69.76
2022-09-28T09:44:05.587Z,69.65
2022-09-28T09:47:15.341Z,69.35
2022-09-28T09:50:05.527Z,68.97
2022-09-28T09:52:57.461Z,68.75
2022-09-28T09:55:31.015Z,68.73
2022-09-28T09:58:54.120Z,68.49
2022-09-28T10:01:50.412Z,67.65
2022-09-28T10:05:00.356Z,68.31
2022-09-28T10:08:10.568Z,68.08
2022-09-28T10:10:52.284Z,67.15
2022-09-28T10:13:21.563Z,66.22
2022-09-28T10:15:54.451Z,66.27
2022-09-28T10:21:31.987Z,66.19
2022-09-28T10:27:59.788Z,66.54
2022-09-28T10:33:59.095Z,67.50
2022-09-28T10:36:26.335Z,67.64
2022-09-28T10:38:54.506Z,67.56
2022-09-28T10:41:32.325Z,68.09
2022-09-28T10:44:11.369Z,66.45
2022-09-28T10:47:09.962Z,68.69
2022-09-28T10:49:46.858Z,67.55
2022-09-28T10:52:40.386Z,68.02
2022-09-28T10:55:32.414Z,68.09
2022-09-28T10:58:17.372Z,67.93
2022-09-28T11:00:45.186Z,68.94
2022-09-28T11:03:29.184Z,68.94
2022-09-28T11:06:08.633Z,68.72
2022-09-28T11:08:42.116Z,68.99
2022-09-28T11:11:19.468Z,68.96
2022-09-28T11:14:01.266Z,68.70
2022-09-28T11:16:37.700Z,67.63
2022-09-28T11:19:21.196Z,68.59
2022-09-28T11:24:37.941Z,67.16
2022-09-28T11:27:05.508Z,67.01
2022-09-28T11:29:38.909Z,66.41
2022-09-28T11:32:44.771Z,67.11
2022-09-28T11:35:46.394Z,67.60
2022-09-28T11:44:08.160Z,67.33
2022-09-28T12:05:37.161Z,65.97
2022-09-28T12:08:12.083Z,65.69
2022-09-28T12:11:12.781Z,66.42
2022-09-28T12:14:21.671Z,69.05
2022-09-28T12:17:07.942Z,68.29
2022-09-28T12:19:49.475Z,65.91
2022-09-28T12:22:59.429Z,66.64
2022-09-28T13:34:50.917Z,68.06
2022-09-28T13:37:26.456Z,67.72
2022-09-28T13:39:59.642Z,67.81
2022-09-28T13:48:17.539Z,67.34
2022-09-28T13:51:10.805Z,67.81
2022-09-28T13:54:08.061Z,67.80
2022-09-28T14:05:23.071Z,68.46
2022-09-28T14:08:08.625Z,69.74
2022-09-28T14:11:25.013Z,69.35
2022-09-28T14:14:05.775Z,69.33
2022-09-28T14:57:08.473Z,70.24
2022-09-28T14:59:46.137Z,70.79
2022-09-28T15:02:20.197Z,70.92
2022-09-28T15:05:02.475Z,70.59
2022-09-28T15:07:34.507Z,70.77
2022-09-28T15:10:02.647Z,70.82
2022-09-28T15:12:31.167Z,71.59
2022-09-28T15:18:05.265Z,71.32
2022-09-28T15:20:44.866Z,71.76
2022-09-28T15:23:27.330Z,71.50
2022-09-28T15:25:56.135Z,71.68
2022-09-28T15:28:33.794Z,72.06
2022-09-28T15:31:03.452Z,72.55
2022-09-28T15:33:52.071Z,73.03
2022-09-28T15:36:24.522Z,72.63
2022-09-28T15:38:59.693Z,72.80
2022-09-28T15:41:30.003Z,73.01
2022-09-28T15:47:31.456Z,73.93
2022-09-28T15:50:05.392Z,73.96
2022-09-28T15:55:33.114Z,74.78
2022-09-28T15:58:19.643Z,74.74
2022-09-28T16:00:52.270Z,74.88
2022-09-28T16:03:29.328Z,75.00
2022-09-28T16:05:59.026Z,75.05
2022-09-28T16:08:45.273Z,75.39
2022-09-28T16:11:20.353Z,75.53
2022-09-28T16:14:06.178Z,76.34
2022-09-28T16:16:50.747Z,76.93
2022-09-28T16:19:40.495Z,77.91
2022-09-28T16:22:14.030Z,78.82
2022-09-28T16:24:42.703Z,79.35
2022-09-28T16:27:30.505Z,80.26
2022-09-28T16:30:04.738Z,81.15
2022-09-28T16:32:38.520Z,81.69
2022-09-28T16:35:11.224Z,82.21
2022-09-28T16:37:40.878Z,82.71
2022-09-28T16:40:08.886Z,83.21
2022-09-28T16:42:36.703Z,83.51
2022-09-28T16:45:05.245Z,83.94
2022-09-28T16:47:34.164Z,84.29
2022-09-28T16:50:03.958Z,84.38
2022-09-28T16:52:49.310Z,84.85
2022-09-28T16:55:36.226Z,85.20
2022-09-28T16:58:04.642Z,85.52
2022-09-28T17:00:31.840Z,85.83
2022-09-28T17:02:59.200Z,85.74
2022-09-28T17:05:26.317Z,85.77
2022-09-28T17:08:04.186Z,86.23
2022-09-28T17:11:09.382Z,86.55
2022-09-28T17:13:35.971Z,86.98
2022-09-28T17:16:18.763Z,87.69
2022-09-28T17:18:46.039Z,87.75
2022-09-28T17:21:18.810Z,88.02
2022-09-28T17:23:47.454Z,88.04
2022-09-28T17:26:29.253Z,87.97
2022-09-28T17:28:55.769Z,88.16
2022-09-28T17:31:22.749Z,88.46
2022-09-28T17:33:50.065Z,87.84
2022-09-28T17:36:19.742Z,88.16
2022-09-28T17:38:51.803Z,88.52
2022-09-28T17:41:20.802Z,88.56
2022-09-28T17:43:48.349Z,88.36
2022-09-28T17:46:37.005Z,88.45
2022-09-28T17:49:06.209Z,88.39
2022-09-28T17:51:39.131Z,88.19
2022-09-28T17:54:07.973Z,88.17
2022-09-28T17:56:35.808Z,88.28
2022-09-28T17:59:06.092Z,88.17
2022-09-28T18:01:34.479Z,88.03
2022-09-28T18:04:03.049Z,87.73
2022-09-28T18:06:29.837Z,87.62
2022-09-28T18:08:56.425Z,87.92
2022-09-28T18:11:23.365Z,87.29
2022-09-28T18:13:50.052Z,86.72
2022-09-28T18:16:17.198Z,87.04
2022-09-28T18:18:43.826Z,86.48
2022-09-28T18:21:10.509Z,86.64
2022-09-28T18:23:38.324Z,86.88
2022-09-28T18:26:13.069Z,86.92
2022-09-28T18:28:40.210Z,86.79
2022-09-28T18:31:12.162Z,86.96
2022-09-28T18:33:39.610Z,87.03
2022-09-28T18:36:07.348Z,86.97
2022-09-28T18:38:38.159Z,86.66
2022-09-28T18:43:49.014Z,87.16
2022-09-28T18:46:17.627Z,87.46
2022-09-28T18:48:44.597Z,87.70
2022-09-28T18:51:12.406Z,86.83
2022-09-28T18:53:40.039Z,86.10
2022-09-28T18:56:12.025Z,85.95
2022-09-28T18:58:40.178Z,85.64
2022-09-28T19:01:28.827Z,85.89
2022-09-28T19:03:55.932Z,85.89
2022-09-28T19:06:22.463Z,85.79
2022-09-28T19:08:55.481Z,85.95
2022-09-28T19:11:23.243Z,86.49
2022-09-28T19:13:50.377Z,86.54
2022-09-28T19:16:20.827Z,86.18
2022-09-28T19:18:48.172Z,86.37
2022-09-28T19:21:15.181Z,85.84
2022-09-28T19:23:49.037Z,85.99
2022-09-28T19:26:20.375Z,86.19
2022-09-28T19:28:47.573Z,86.17
2022-09-28T19:31:14.205Z,85.90
2022-09-28T19:33:41.744Z,85.84
2022-09-28T19:36:11.127Z,86.08
2022-09-28T19:38:39.211Z,86.20
2022-09-28T19:41:37.791Z,86.56
2022-09-28T19:44:13.050Z,86.40
2022-09-28T19:46:40.709Z,86.60
2022-09-28T19:49:10.514Z,87.06
2022-09-28T19:51:46.951Z,87.25
2022-09-28T19:54:30.995Z,87.92
2022-09-28T19:56:59.866Z,88.34
2022-09-28T19:59:26.452Z,88.67
2022-09-28T20:01:56.230Z,89.37
2022-09-28T20:04:23.209Z,89.72
2022-09-28T20:06:52.790Z,89.59
2022-09-28T20:09:19.650Z,89.98
2022-09-28T20:11:46.741Z,89.59
2022-09-28T20:14:18.567Z,90.20
2022-09-28T20:16:48.465Z,90.07
2022-09-28T20:19:15.441Z,90.16
2022-09-28T20:21:42.044Z,89.80
2022-09-28T20:24:11.229Z,90.15
2022-09-28T20:26:37.990Z,90.20
2022-09-28T20:29:06.646Z,90.12
2022-09-28T20:31:40.126Z,90.03
2022-09-28T20:34:07.139Z,90.03
2022-09-28T20:36:34.185Z,90.05
2022-09-28T20:39:01.993Z,89.74
2022-09-28T20:41:35.653Z,89.55
2022-09-28T20:44:05.788Z,89.38
2022-09-28T20:46:36.550Z,89.57
2022-09-28T20:49:04.209Z,89.91
2022-09-28T20:51:31.018Z,92.28
2022-09-28T20:53:59.023Z,92.79
2022-09-28T20:56:38.709Z,93.01
2022-09-28T20:59:08.431Z,93.06
2022-09-28T21:01:35.393Z,93.00
2022-09-28T21:04:04.583Z,93.33
2022-09-28T21:06:34.311Z,93.31
2022-09-28T21:09:01.230Z,93.49
2022-09-28T21:11:29.638Z,93.22
2022-09-28T21:14:02.157Z,92.86
2022-09-28T21:16:31.248Z,92.70
2022-09-28T21:18:58.228Z,92.52
2022-09-28T21:21:26.121Z,92.30
2022-09-28T21:23:55.312Z,92.19
2022-09-28T21:26:25.057Z,91.87
2022-09-28T21:29:03.577Z,91.84
2022-09-28T21:31:38.492Z,90.95
2022-09-28T21:34:05.635Z,90.30
2022-09-28T21:36:32.336Z,90.77
2022-09-28T21:38:58.927Z,90.20
2022-09-28T21:41:25.753Z,89.89
2022-09-28T21:43:52.585Z,90.04
2022-09-28T21:46:19.377Z,89.34
2022-09-28T21:48:46.043Z,88.86
2022-09-28T21:51:19.252Z,89.13
2022-09-28T21:53:45.848Z,89.34
2022-09-28T21:56:13.035Z,89.25
2022-09-28T21:58:42.087Z,89.44
2022-09-28T22:01:20.534Z,89.18
2022-09-28T22:03:50.431Z,88.99
2022-09-28T22:06:18.954Z,88.98
2022-09-28T22:08:46.882Z,89.69
2022-09-28T22:11:18.887Z,89.63
2022-09-28T22:13:49.998Z,89.57
2022-09-28T22:16:18.775Z,89.81
2022-09-28T22:18:46.071Z,89.46
2022-09-28T22:21:15.537Z,89.48
2022-09-28T22:23:42.536Z,89.68
2022-09-28T22:26:28.482Z,90.14
2022-09-28T22:28:59.712Z,90.62
2022-09-28T22:31:29.395Z,90.55
2022-09-28T22:33:56.478Z,90.56
2022-09-28T22:36:23.858Z,90.21
2022-09-28T22:38:50.917Z,90.76
2022-09-28T22:41:20.883Z,90.59
2022-09-28T22:43:57.780Z,90.58
2022-09-28T22:46:29.368Z,90.71
2022-09-28T22:48:58.215Z,90.67
2022-09-28T22:51:27.335Z,90.74
2022-09-28T22:53:54.292Z,90.49
2022-09-28T22:56:20.874Z,91.31
2022-09-28T22:58:47.665Z,91.31
2022-09-28T23:01:20.294Z,90.66
2022-09-28T23:03:48.140Z,90.00
2022-09-28T23:06:21.400Z,89.83
2022-09-28T23:08:51.399Z,89.67
2022-09-28T23:11:19.019Z,89.67
2022-09-28T23:13:50.439Z,91.10
2022-09-28T23:16:17.496Z,90.85
2022-09-28T23:18:44.181Z,91.40
2022-09-28T23:21:19.945Z,92.43
2022-09-28T23:23:52.351Z,91.89
2022-09-28T23:26:25.010Z,91.37
2022-09-28T23:28:52.728Z,92.20
2022-09-28T23:31:31.610Z,92.05
2022-09-28T23:34:06.701Z,92.07
2022-09-28T23:36:35.864Z,92.02
2022-09-28T23:39:03.117Z,92.79
2022-09-28T23:41:35.489Z,92.68
2022-09-28T23:44:02.306Z,92.15
2022-09-28T23:46:29.115Z,92.23
2022-09-28T23:48:55.834Z,92.00
2022-09-28T23:51:22.458Z,92.35
2022-09-28T23:53:49.092Z,92.72
2022-09-28T23:56:15.777Z,92.52
2022-09-28T23:58:42.712Z,92.88
